Decoded Metar for KTYR (TYLER in TX, USA) (IATA:TYR) | Meteo·Mobile Aviation Weather
aviador You're here:

KTYR Decoded Metar

TYLER in TX, USA
Report Time2019-02-16 17:00:00
UTC Time2019-02-16 17:17:06
Flight Rules lifr LIFR
Wind060° at 07 kt
W.Decomp.*RWY 04: 6.7 kt HW 2.0 kt RCW
RWY 35: 2.7 kt HW 6.4 kt RCW
RWY 13: 2.0 kt HW 6.7 kt LCW
W.Rank060° ranks 17
Current wind is above 060° avg. (6.3)
Visibility8047 m
Phenomena:Light Rain
Mist
Clouds:Overcast 003 Hf
Expected CloudBase > 400 ft AGL from Temp-Dew spread
Ceiling300 ft
Temp06°C (ISA -8)
Dew Point05°C (93% RH)
AAT2.3°C
QNH1011 hPa
Density Alt-226 ft
Elevation541 ft
Report Wrong Elevation
Raw Report
KTYR 161700Z 06007KT 5SM -RA BR OVC003 06/05 A2985 RMK AO2 P0000
T00610050=

Extra information for KTYR:More info

Metar Taf Metar & Taf Last 4 Metars F.Rules Stats Wind Profile Meteogram Temp Stats Airport Information Weather charts Add Link Nearby VenuesMetar ALERT Operation Metar Decoded Social comments

AIRNAV info for KTYR